sensor_id;sensor_type;location;lat;lon;timestamp;P1;P2;P0
57884;PMS5003;43703;51.060;-0.086;2023-03-21T00:01:02;14;12;
57884;PMS5003;43703;51.060;-0.086;2023-03-21T00:03:27;14;12;
57884;PMS5003;43703;51.060;-0.086;2023-03-21T00:05:52;16;15;
57884;PMS5003;43703;51.060;-0.086;2023-03-21T00:08:18;12;12;
57884;PMS5003;43703;51.060;-0.086;2023-03-21T00:10:43;12;12;
57884;PMS5003;43703;51.060;-0.086;2023-03-21T00:13:09;13;13;
57884;PMS5003;43703;51.060;-0.086;2023-03-21T00:15:34;7;7;
57884;PMS5003;43703;51.060;-0.086;2023-03-21T00:17:59;13;10;
57884;PMS5003;43703;51.060;-0.086;2023-03-21T00:20:25;13;13;
57884;PMS5003;43703;51.060;-0.086;2023-03-21T00:22:50;12;10;
57884;PMS5003;43703;51.060;-0.086;2023-03-21T00:25:15;14;12;
57884;PMS5003;43703;51.060;-0.086;2023-03-21T00:27:40;13;12;
57884;PMS5003;43703;51.060;-0.086;2023-03-21T00:30:06;15;14;
57884;PMS5003;43703;51.060;-0.086;2023-03-21T00:32:31;10;9;
57884;PMS5003;43703;51.060;-0.086;2023-03-21T00:34:56;15;15;
57884;PMS5003;43703;51.060;-0.086;2023-03-21T00:37:21;16;12;
57884;PMS5003;43703;51.060;-0.086;2023-03-21T00:39:47;12;12;
57884;PMS5003;43703;51.060;-0.086;2023-03-21T00:42:11;16;12;
57884;PMS5003;43703;51.060;-0.086;2023-03-21T00:44:37;14;14;
57884;PMS5003;43703;51.060;-0.086;2023-03-21T00:47:02;13;12;
57884;PMS5003;43703;51.060;-0.086;2023-03-21T00:49:28;17;16;
57884;PMS5003;43703;51.060;-0.086;2023-03-21T00:51:53;19;16;
57884;PMS5003;43703;51.060;-0.086;2023-03-21T00:54:18;19;16;
57884;PMS5003;43703;51.060;-0.086;2023-03-21T00:56:44;13;13;
57884;PMS5003;43703;51.060;-0.086;2023-03-21T00:59:09;21;18;
57884;PMS5003;43703;51.060;-0.086;2023-03-21T01:01:35;17;14;
57884;PMS5003;43703;51.060;-0.086;2023-03-21T01:04:00;15;15;
57884;PMS5003;43703;51.060;-0.086;2023-03-21T01:06:25;13;13;
57884;PMS5003;43703;51.060;-0.086;2023-03-21T01:08:51;19;16;
57884;PMS5003;43703;51.060;-0.086;2023-03-21T01:11:17;14;14;
57884;PMS5003;43703;51.060;-0.086;2023-03-21T01:13:42;11;11;
57884;PMS5003;43703;51.060;-0.086;2023-03-21T01:16:07;15;14;
57884;PMS5003;43703;51.060;-0.086;2023-03-21T01:18:33;16;16;
57884;PMS5003;43703;51.060;-0.086;2023-03-21T01:20:58;15;13;
57884;PMS5003;43703;51.060;-0.086;2023-03-21T01:23:22;13;12;
57884;PMS5003;43703;51.060;-0.086;2023-03-21T01:25:47;15;13;
57884;PMS5003;43703;51.060;-0.086;2023-03-21T01:28:12;16;15;
57884;PMS5003;43703;51.060;-0.086;2023-03-21T01:30:37;12;11;
57884;PMS5003;43703;51.060;-0.086;2023-03-21T01:33:03;16;16;
57884;PMS5003;43703;51.060;-0.086;2023-03-21T01:35:28;13;12;
57884;PMS5003;43703;51.060;-0.086;2023-03-21T01:37:53;15;12;
57884;PMS5003;43703;51.060;-0.086;2023-03-21T01:40:19;13;12;
57884;PMS5003;43703;51.060;-0.086;2023-03-21T01:42:43;18;15;
57884;PMS5003;43703;51.060;-0.086;2023-03-21T01:47:33;13;13;
57884;PMS5003;43703;51.060;-0.086;2023-03-21T01:50:00;12;12;
57884;PMS5003;43703;51.060;-0.086;2023-03-21T01:52:25;14;12;
57884;PMS5003;43703;51.060;-0.086;2023-03-21T01:54:50;15;12;
57884;PMS5003;43703;51.060;-0.086;2023-03-21T01:57:16;16;13;
57884;PMS5003;43703;51.060;-0.086;2023-03-21T01:59:42;14;13;
57884;PMS5003;43703;51.060;-0.086;2023-03-21T02:02:07;13;12;
57884;PMS5003;43703;51.060;-0.086;2023-03-21T02:04:31;14;13;
57884;PMS5003;43703;51.060;-0.086;2023-03-21T02:06:58;15;10;
57884;PMS5003;43703;51.060;-0.086;2023-03-21T02:09:23;15;13;
57884;PMS5003;43703;51.060;-0.086;2023-03-21T02:11:47;17;13;
57884;PMS5003;43703;51.060;-0.086;2023-03-21T02:14:13;13;13;
57884;PMS5003;43703;51.060;-0.086;2023-03-21T02:16:42;13;11;
57884;PMS5003;43703;51.060;-0.086;2023-03-21T02:19:07;15;13;
57884;PMS5003;43703;51.060;-0.086;2023-03-21T02:21:35;13;11;
57884;PMS5003;43703;51.060;-0.086;2023-03-21T02:26:22;10;10;
57884;PMS5003;43703;51.060;-0.086;2023-03-21T02:28:44;11;11;
57884;PMS5003;43703;51.060;-0.086;2023-03-21T02:31:17;13;9;
57884;PMS5003;43703;51.060;-0.086;2023-03-21T02:33:38;12;12;
57884;PMS5003;43703;51.060;-0.086;2023-03-21T02:36:04;12;9;
57884;PMS5003;43703;51.060;-0.086;2023-03-21T02:38:25;13;12;
57884;PMS5003;43703;51.060;-0.086;2023-03-21T02:40:51;11;9;
57884;PMS5003;43703;51.060;-0.086;2023-03-21T02:43:16;14;12;
57884;PMS5003;43703;51.060;-0.086;2023-03-21T02:45:41;12;11;
57884;PMS5003;43703;51.060;-0.086;2023-03-21T02:48:06;9;9;
57884;PMS5003;43703;51.060;-0.086;2023-03-21T02:50:31;13;12;
57884;PMS5003;43703;51.060;-0.086;2023-03-21T02:52:55;10;10;
57884;PMS5003;43703;51.060;-0.086;2023-03-21T02:55:22;10;10;
57884;PMS5003;43703;51.060;-0.086;2023-03-21T02:57:45;12;9;
57884;PMS5003;43703;51.060;-0.086;2023-03-21T03:00:17;10;10;
57884;PMS5003;43703;51.060;-0.086;2023-03-21T03:02:37;14;11;
57884;PMS5003;43703;51.060;-0.086;2023-03-21T03:07:30;11;10;
57884;PMS5003;43703;51.060;-0.086;2023-03-21T03:09:58;12;9;
57884;PMS5003;43703;51.060;-0.086;2023-03-21T03:12:19;12;11;
57884;PMS5003;43703;51.060;-0.086;2023-03-21T03:14:45;12;11;
57884;PMS5003;43703;51.060;-0.086;2023-03-21T03:17:12;10;9;
57884;PMS5003;43703;51.060;-0.086;2023-03-21T03:19:34;7;7;
57884;PMS5003;43703;51.060;-0.086;2023-03-21T03:21:59;9;6;
57884;PMS5003;43703;51.060;-0.086;2023-03-21T03:24:23;10;10;
57884;PMS5003;43703;51.060;-0.086;2023-03-21T03:26:49;13;11;
57884;PMS5003;43703;51.060;-0.086;2023-03-21T03:29:14;11;11;
57884;PMS5003;43703;51.060;-0.086;2023-03-21T03:31:40;11;10;
57884;PMS5003;43703;51.060;-0.086;2023-03-21T03:34:05;10;7;
57884;PMS5003;43703;51.060;-0.086;2023-03-21T03:36:30;10;10;
57884;PMS5003;43703;51.060;-0.086;2023-03-21T03:38:55;9;9;
57884;PMS5003;43703;51.060;-0.086;2023-03-21T03:41:21;9;7;
57884;PMS5003;43703;51.060;-0.086;2023-03-21T03:43:46;14;9;
57884;PMS5003;43703;51.060;-0.086;2023-03-21T03:46:12;8;8;
57884;PMS5003;43703;51.060;-0.086;2023-03-21T03:48:39;11;9;
57884;PMS5003;43703;51.060;-0.086;2023-03-21T03:51:02;9;9;
57884;PMS5003;43703;51.060;-0.086;2023-03-21T03:53:27;11;7;
57884;PMS5003;43703;51.060;-0.086;2023-03-21T03:55:52;10;8;
57884;PMS5003;43703;51.060;-0.086;2023-03-21T03:58:17;7;7;
57884;PMS5003;43703;51.060;-0.086;2023-03-21T04:00:42;7;7;
57884;PMS5003;43703;51.060;-0.086;2023-03-21T04:03:07;8;7;
57884;PMS5003;43703;51.060;-0.086;2023-03-21T04:05:33;10;7;
57884;PMS5003;43703;51.060;-0.086;2023-03-21T04:07:58;5;5;
57884;PMS5003;43703;51.060;-0.086;2023-03-21T04:10:23;13;8;
57884;PMS5003;43703;51.060;-0.086;2023-03-21T04:12:49;11;8;
57884;PMS5003;43703;51.060;-0.086;2023-03-21T04:15:14;12;10;
57884;PMS5003;43703;51.060;-0.086;2023-03-21T04:17:40;9;7;
57884;PMS5003;43703;51.060;-0.086;2023-03-21T04:20:05;7;7;
57884;PMS5003;43703;51.060;-0.086;2023-03-21T04:22:30;6;6;
57884;PMS5003;43703;51.060;-0.086;2023-03-21T04:24:55;7;7;
57884;PMS5003;43703;51.060;-0.086;2023-03-21T04:27:20;7;7;
57884;PMS5003;43703;51.060;-0.086;2023-03-21T04:29:45;8;6;
57884;PMS5003;43703;51.060;-0.086;2023-03-21T04:32:10;9;6;
57884;PMS5003;43703;51.060;-0.086;2023-03-21T04:34:35;9;9;
57884;PMS5003;43703;51.060;-0.086;2023-03-21T04:37:00;6;6;
57884;PMS5003;43703;51.060;-0.086;2023-03-21T04:39:26;6;5;
57884;PMS5003;43703;51.060;-0.086;2023-03-21T04:41:51;10;9;
57884;PMS5003;43703;51.060;-0.086;2023-03-21T04:44:17;6;6;
57884;PMS5003;43703;51.060;-0.086;2023-03-21T04:46:42;6;5;
57884;PMS5003;43703;51.060;-0.086;2023-03-21T04:49:08;6;6;
57884;PMS5003;43703;51.060;-0.086;2023-03-21T04:51:33;7;5;
57884;PMS5003;43703;51.060;-0.086;2023-03-21T04:54:04;8;7;
57884;PMS5003;43703;51.060;-0.086;2023-03-21T04:56:23;7;7;
57884;PMS5003;43703;51.060;-0.086;2023-03-21T04:58:48;6;6;
57884;PMS5003;43703;51.060;-0.086;2023-03-21T05:01:13;5;5;
57884;PMS5003;43703;51.060;-0.086;2023-03-21T05:03:40;7;5;
57884;PMS5003;43703;51.060;-0.086;2023-03-21T05:06:05;10;7;
57884;PMS5003;43703;51.060;-0.086;2023-03-21T05:08:29;5;5;
57884;PMS5003;43703;51.060;-0.086;2023-03-21T05:10:54;10;6;
57884;PMS5003;43703;51.060;-0.086;2023-03-21T05:13:20;6;6;
57884;PMS5003;43703;51.060;-0.086;2023-03-21T05:15:44;7;6;
57884;PMS5003;43703;51.060;-0.086;2023-03-21T05:18:11;9;6;
57884;PMS5003;43703;51.060;-0.086;2023-03-21T05:20:36;8;6;
57884;PMS5003;43703;51.060;-0.086;2023-03-21T05:23:01;7;4;
57884;PMS5003;43703;51.060;-0.086;2023-03-21T05:25:26;5;5;
57884;PMS5003;43703;51.060;-0.086;2023-03-21T05:27:51;7;5;
57884;PMS5003;43703;51.060;-0.086;2023-03-21T05:30:16;7;7;
57884;PMS5003;43703;51.060;-0.086;2023-03-21T05:32:42;9;7;
57884;PMS5003;43703;51.060;-0.086;2023-03-21T05:35:08;7;7;
57884;PMS5003;43703;51.060;-0.086;2023-03-21T05:37:33;8;6;
57884;PMS5003;43703;51.060;-0.086;2023-03-21T05:39:58;8;8;
57884;PMS5003;43703;51.060;-0.086;2023-03-21T05:42:24;6;6;
57884;PMS5003;43703;51.060;-0.086;2023-03-21T05:44:49;8;7;
57884;PMS5003;43703;51.060;-0.086;2023-03-21T05:47:15;9;9;
57884;PMS5003;43703;51.060;-0.086;2023-03-21T05:49:39;7;7;
57884;PMS5003;43703;51.060;-0.086;2023-03-21T05:52:05;8;7;
57884;PMS5003;43703;51.060;-0.086;2023-03-21T05:54:30;10;9;
57884;PMS5003;43703;51.060;-0.086;2023-03-21T05:56:55;12;11;
57884;PMS5003;43703;51.060;-0.086;2023-03-21T05:59:21;14;10;
57884;PMS5003;43703;51.060;-0.086;2023-03-21T06:01:46;8;8;
57884;PMS5003;43703;51.060;-0.086;2023-03-21T06:04:11;13;9;
57884;PMS5003;43703;51.060;-0.086;2023-03-21T06:06:37;11;8;
57884;PMS5003;43703;51.060;-0.086;2023-03-21T06:09:02;10;8;
57884;PMS5003;43703;51.060;-0.086;2023-03-21T06:11:28;11;9;
57884;PMS5003;43703;51.060;-0.086;2023-03-21T06:13:52;10;9;
57884;PMS5003;43703;51.060;-0.086;2023-03-21T06:16:18;10;10;
57884;PMS5003;43703;51.060;-0.086;2023-03-21T06:18:44;9;8;
57884;PMS5003;43703;51.060;-0.086;2023-03-21T06:21:08;7;6;
57884;PMS5003;43703;51.060;-0.086;2023-03-21T06:23:34;8;8;
57884;PMS5003;43703;51.060;-0.086;2023-03-21T06:25:59;7;6;
57884;PMS5003;43703;51.060;-0.086;2023-03-21T06:28:29;8;7;
57884;PMS5003;43703;51.060;-0.086;2023-03-21T06:30:49;10;9;
57884;PMS5003;43703;51.060;-0.086;2023-03-21T06:33:15;8;7;
57884;PMS5003;43703;51.060;-0.086;2023-03-21T06:35:40;9;9;
57884;PMS5003;43703;51.060;-0.086;2023-03-21T06:38:06;9;9;
57884;PMS5003;43703;51.060;-0.086;2023-03-21T06:40:31;10;9;
57884;PMS5003;43703;51.060;-0.086;2023-03-21T06:42:56;6;6;
57884;PMS5003;43703;51.060;-0.086;2023-03-21T06:45:22;10;9;
57884;PMS5003;43703;51.060;-0.086;2023-03-21T06:47:46;8;8;
57884;PMS5003;43703;51.060;-0.086;2023-03-21T06:50:11;9;6;
57884;PMS5003;43703;51.060;-0.086;2023-03-21T06:52:36;7;7;
57884;PMS5003;43703;51.060;-0.086;2023-03-21T06:55:02;13;13;
57884;PMS5003;43703;51.060;-0.086;2023-03-21T06:57:27;8;6;
57884;PMS5003;43703;51.060;-0.086;2023-03-21T06:59:53;9;9;
57884;PMS5003;43703;51.060;-0.086;2023-03-21T07:02:17;6;6;
57884;PMS5003;43703;51.060;-0.086;2023-03-21T07:04:42;6;6;
57884;PMS5003;43703;51.060;-0.086;2023-03-21T07:07:08;8;8;
57884;PMS5003;43703;51.060;-0.086;2023-03-21T07:09:33;6;5;
57884;PMS5003;43703;51.060;-0.086;2023-03-21T07:11:58;7;7;
57884;PMS5003;43703;51.060;-0.086;2023-03-21T07:14:24;10;9;
57884;PMS5003;43703;51.060;-0.086;2023-03-21T07:16:48;6;6;
57884;PMS5003;43703;51.060;-0.086;2023-03-21T07:19:13;10;7;
57884;PMS5003;43703;51.060;-0.086;2023-03-21T07:21:38;9;6;
57884;PMS5003;43703;51.060;-0.086;2023-03-21T07:24:04;9;9;
57884;PMS5003;43703;51.060;-0.086;2023-03-21T07:26:29;8;8;
57884;PMS5003;43703;51.060;-0.086;2023-03-21T07:28:54;8;8;
57884;PMS5003;43703;51.060;-0.086;2023-03-21T07:31:20;7;6;
57884;PMS5003;43703;51.060;-0.086;2023-03-21T07:33:45;8;7;
57884;PMS5003;43703;51.060;-0.086;2023-03-21T07:36:11;8;8;
57884;PMS5003;43703;51.060;-0.086;2023-03-21T07:38:36;5;5;
57884;PMS5003;43703;51.060;-0.086;2023-03-21T07:41:01;9;9;
57884;PMS5003;43703;51.060;-0.086;2023-03-21T07:43:27;8;8;
57884;PMS5003;43703;51.060;-0.086;2023-03-21T07:45:55;7;7;
57884;PMS5003;43703;51.060;-0.086;2023-03-21T07:48:17;11;10;
57884;PMS5003;43703;51.060;-0.086;2023-03-21T07:50:43;9;9;
57884;PMS5003;43703;51.060;-0.086;2023-03-21T07:53:08;13;11;
57884;PMS5003;43703;51.060;-0.086;2023-03-21T07:55:33;9;8;
57884;PMS5003;43703;51.060;-0.086;2023-03-21T07:57:58;9;9;
57884;PMS5003;43703;51.060;-0.086;2023-03-21T08:00:24;8;8;
57884;PMS5003;43703;51.060;-0.086;2023-03-21T08:02:50;9;9;
57884;PMS5003;43703;51.060;-0.086;2023-03-21T08:05:15;7;7;
57884;PMS5003;43703;51.060;-0.086;2023-03-21T08:07:40;9;6;
57884;PMS5003;43703;51.060;-0.086;2023-03-21T08:10:05;10;9;
57884;PMS5003;43703;51.060;-0.086;2023-03-21T08:12:30;6;4;
57884;PMS5003;43703;51.060;-0.086;2023-03-21T08:14:55;6;6;
57884;PMS5003;43703;51.060;-0.086;2023-03-21T08:17:23;7;7;
57884;PMS5003;43703;51.060;-0.086;2023-03-21T08:19:45;6;6;
57884;PMS5003;43703;51.060;-0.086;2023-03-21T08:22:10;7;6;
57884;PMS5003;43703;51.060;-0.086;2023-03-21T08:24:35;8;6;
57884;PMS5003;43703;51.060;-0.086;2023-03-21T08:27:00;6;6;
57884;PMS5003;43703;51.060;-0.086;2023-03-21T08:29:25;6;6;
57884;PMS5003;43703;51.060;-0.086;2023-03-21T08:31:50;6;6;
57884;PMS5003;43703;51.060;-0.086;2023-03-21T08:34:15;6;6;
57884;PMS5003;43703;51.060;-0.086;2023-03-21T08:36:42;7;7;
57884;PMS5003;43703;51.060;-0.086;2023-03-21T08:39:05;10;5;
57884;PMS5003;43703;51.060;-0.086;2023-03-21T08:41:30;10;8;
57884;PMS5003;43703;51.060;-0.086;2023-03-21T08:43:55;6;6;
57884;PMS5003;43703;51.060;-0.086;2023-03-21T08:46:20;7;5;
57884;PMS5003;43703;51.060;-0.086;2023-03-21T08:48:45;10;6;
57884;PMS5003;43703;51.060;-0.086;2023-03-21T08:51:10;5;5;
57884;PMS5003;43703;51.060;-0.086;2023-03-21T08:53:36;4;4;
57884;PMS5003;43703;51.060;-0.086;2023-03-21T08:56:02;7;6;
57884;PMS5003;43703;51.060;-0.086;2023-03-21T08:58:27;6;5;
57884;PMS5003;43703;51.060;-0.086;2023-03-21T09:00:52;4;4;
57884;PMS5003;43703;51.060;-0.086;2023-03-21T09:03:17;5;5;
57884;PMS5003;43703;51.060;-0.086;2023-03-21T09:05:42;6;6;
57884;PMS5003;43703;51.060;-0.086;2023-03-21T09:08:07;7;6;
57884;PMS5003;43703;51.060;-0.086;2023-03-21T09:10:32;5;5;
57884;PMS5003;43703;51.060;-0.086;2023-03-21T09:12:57;5;5;
57884;PMS5003;43703;51.060;-0.086;2023-03-21T09:15:24;6;5;
57884;PMS5003;43703;51.060;-0.086;2023-03-21T09:17:48;4;4;
57884;PMS5003;43703;51.060;-0.086;2023-03-21T09:20:13;5;5;
57884;PMS5003;43703;51.060;-0.086;2023-03-21T09:22:38;8;8;
57884;PMS5003;43703;51.060;-0.086;2023-03-21T09:25:04;9;6;
57884;PMS5003;43703;51.060;-0.086;2023-03-21T09:27:29;6;6;
57884;PMS5003;43703;51.060;-0.086;2023-03-21T09:29:54;5;5;
57884;PMS5003;43703;51.060;-0.086;2023-03-21T09:32:20;8;8;
57884;PMS5003;43703;51.060;-0.086;2023-03-21T09:34:45;4;4;
57884;PMS5003;43703;51.060;-0.086;2023-03-21T09:37:10;8;6;
57884;PMS5003;43703;51.060;-0.086;2023-03-21T09:39:35;7;7;
57884;PMS5003;43703;51.060;-0.086;2023-03-21T09:42:03;7;6;
57884;PMS5003;43703;51.060;-0.086;2023-03-21T09:44:29;7;5;
57884;PMS5003;43703;51.060;-0.086;2023-03-21T09:46:52;7;6;
57884;PMS5003;43703;51.060;-0.086;2023-03-21T09:49:17;5;5;
57884;PMS5003;43703;51.060;-0.086;2023-03-21T09:51:42;8;7;
57884;PMS5003;43703;51.060;-0.086;2023-03-21T09:54:07;5;4;
57884;PMS5003;43703;51.060;-0.086;2023-03-21T09:56:33;5;5;
57884;PMS5003;43703;51.060;-0.086;2023-03-21T09:58:58;7;4;
57884;PMS5003;43703;51.060;-0.086;2023-03-21T10:01:24;6;6;
57884;PMS5003;43703;51.060;-0.086;2023-03-21T10:03:48;5;5;
57884;PMS5003;43703;51.060;-0.086;2023-03-21T10:06:13;4;3;
57884;PMS5003;43703;51.060;-0.086;2023-03-21T10:08:38;6;5;
57884;PMS5003;43703;51.060;-0.086;2023-03-21T10:11:05;4;4;
57884;PMS5003;43703;51.060;-0.086;2023-03-21T10:13:31;7;6;
57884;PMS5003;43703;51.060;-0.086;2023-03-21T10:15:54;9;6;
57884;PMS5003;43703;51.060;-0.086;2023-03-21T10:18:20;4;4;
57884;PMS5003;43703;51.060;-0.086;2023-03-21T10:20:45;7;5;
57884;PMS5003;43703;51.060;-0.086;2023-03-21T10:23:11;5;3;
57884;PMS5003;43703;51.060;-0.086;2023-03-21T10:25:36;5;5;
57884;PMS5003;43703;51.060;-0.086;2023-03-21T10:28:01;6;6;
57884;PMS5003;43703;51.060;-0.086;2023-03-21T10:30:28;5;5;
57884;PMS5003;43703;51.060;-0.086;2023-03-21T10:32:51;11;5;
57884;PMS5003;43703;51.060;-0.086;2023-03-21T10:35:16;7;5;
57884;PMS5003;43703;51.060;-0.086;2023-03-21T10:37:41;8;6;
57884;PMS5003;43703;51.060;-0.086;2023-03-21T10:40:09;3;3;
57884;PMS5003;43703;51.060;-0.086;2023-03-21T10:42:31;8;7;
57884;PMS5003;43703;51.060;-0.086;2023-03-21T10:44:56;4;4;
57884;PMS5003;43703;51.060;-0.086;2023-03-21T10:47:23;4;2;
57884;PMS5003;43703;51.060;-0.086;2023-03-21T10:49:46;5;3;
57884;PMS5003;43703;51.060;-0.086;2023-03-21T10:52:13;6;3;
57884;PMS5003;43703;51.060;-0.086;2023-03-21T10:54:38;3;3;
57884;PMS5003;43703;51.060;-0.086;2023-03-21T10:57:05;7;7;
57884;PMS5003;43703;51.060;-0.086;2023-03-21T10:59:34;2;2;
57884;PMS5003;43703;51.060;-0.086;2023-03-21T11:01:55;4;3;
57884;PMS5003;43703;51.060;-0.086;2023-03-21T11:04:23;3;3;
57884;PMS5003;43703;51.060;-0.086;2023-03-21T11:06:49;4;2;
57884;PMS5003;43703;51.060;-0.086;2023-03-21T11:09:13;8;6;
57884;PMS5003;43703;51.060;-0.086;2023-03-21T11:11:38;3;3;
57884;PMS5003;43703;51.060;-0.086;2023-03-21T11:14:04;3;3;
57884;PMS5003;43703;51.060;-0.086;2023-03-21T11:16:31;4;4;
57884;PMS5003;43703;51.060;-0.086;2023-03-21T11:18:56;6;4;
57884;PMS5003;43703;51.060;-0.086;2023-03-21T11:21:21;4;3;
57884;PMS5003;43703;51.060;-0.086;2023-03-21T11:23:47;6;6;
57884;PMS5003;43703;51.060;-0.086;2023-03-21T11:26:16;10;6;
57884;PMS5003;43703;51.060;-0.086;2023-03-21T11:28:37;4;4;
57884;PMS5003;43703;51.060;-0.086;2023-03-21T11:31:02;6;3;
57884;PMS5003;43703;51.060;-0.086;2023-03-21T11:33:30;3;3;
57884;PMS5003;43703;51.060;-0.086;2023-03-21T11:35:57;4;4;
57884;PMS5003;43703;51.060;-0.086;2023-03-21T11:38:22;5;4;
57884;PMS5003;43703;51.060;-0.086;2023-03-21T11:45:35;5;4;
57884;PMS5003;43703;51.060;-0.086;2023-03-21T11:48:00;9;3;
57884;PMS5003;43703;51.060;-0.086;2023-03-21T11:50:26;8;4;
57884;PMS5003;43703;51.060;-0.086;2023-03-21T11:52:54;4;3;
57884;PMS5003;43703;51.060;-0.086;2023-03-21T11:57:43;3;2;
57884;PMS5003;43703;51.060;-0.086;2023-03-21T12:00:10;2;2;
57884;PMS5003;43703;51.060;-0.086;2023-03-21T12:04:59;5;4;
57884;PMS5003;43703;51.060;-0.086;2023-03-21T12:07:26;7;5;
57884;PMS5003;43703;51.060;-0.086;2023-03-21T12:09:50;8;5;
57884;PMS5003;43703;51.060;-0.086;2023-03-21T12:12:18;7;4;
57884;PMS5003;43703;51.060;-0.086;2023-03-21T12:14:44;4;3;
57884;PMS5003;43703;51.060;-0.086;2023-03-21T12:17:09;9;7;
57884;PMS5003;43703;51.060;-0.086;2023-03-21T12:19:33;8;5;
57884;PMS5003;43703;51.060;-0.086;2023-03-21T12:21:58;4;3;
57884;PMS5003;43703;51.060;-0.086;2023-03-21T12:24:22;6;4;
57884;PMS5003;43703;51.060;-0.086;2023-03-21T12:26:50;8;7;
57884;PMS5003;43703;51.060;-0.086;2023-03-21T12:29:20;7;4;
57884;PMS5003;43703;51.060;-0.086;2023-03-21T12:31:43;5;5;
57884;PMS5003;43703;51.060;-0.086;2023-03-21T12:34:08;6;3;
57884;PMS5003;43703;51.060;-0.086;2023-03-21T12:36:36;8;6;
57884;PMS5003;43703;51.060;-0.086;2023-03-21T12:38:58;4;4;
57884;PMS5003;43703;51.060;-0.086;2023-03-21T12:41:22;6;4;
57884;PMS5003;43703;51.060;-0.086;2023-03-21T12:43:47;6;3;
57884;PMS5003;43703;51.060;-0.086;2023-03-21T12:46:13;6;6;
57884;PMS5003;43703;51.060;-0.086;2023-03-21T12:48:38;9;6;
57884;PMS5003;43703;51.060;-0.086;2023-03-21T12:51:03;4;4;
57884;PMS5003;43703;51.060;-0.086;2023-03-21T12:53:30;7;4;
57884;PMS5003;43703;51.060;-0.086;2023-03-21T12:55:53;10;9;
57884;PMS5003;43703;51.060;-0.086;2023-03-21T12:58:20;6;6;
57884;PMS5003;43703;51.060;-0.086;2023-03-21T13:00:45;4;4;
57884;PMS5003;43703;51.060;-0.086;2023-03-21T13:03:10;7;6;
57884;PMS5003;43703;51.060;-0.086;2023-03-21T13:05:36;6;6;
57884;PMS5003;43703;51.060;-0.086;2023-03-21T13:08:02;11;9;
57884;PMS5003;43703;51.060;-0.086;2023-03-21T13:10:26;6;6;
57884;PMS5003;43703;51.060;-0.086;2023-03-21T13:12:55;9;9;
57884;PMS5003;43703;51.060;-0.086;2023-03-21T13:15:21;5;5;
57884;PMS5003;43703;51.060;-0.086;2023-03-21T13:17:41;10;8;
57884;PMS5003;43703;51.060;-0.086;2023-03-21T13:20:09;10;6;
57884;PMS5003;43703;51.060;-0.086;2023-03-21T13:22:33;11;10;
57884;PMS5003;43703;51.060;-0.086;2023-03-21T13:24:59;14;7;
57884;PMS5003;43703;51.060;-0.086;2023-03-21T13:27:26;5;5;
57884;PMS5003;43703;51.060;-0.086;2023-03-21T13:29:50;6;4;
57884;PMS5003;43703;51.060;-0.086;2023-03-21T13:32:16;9;5;
57884;PMS5003;43703;51.060;-0.086;2023-03-21T13:34:41;7;4;
57884;PMS5003;43703;51.060;-0.086;2023-03-21T13:37:08;6;6;
57884;PMS5003;43703;51.060;-0.086;2023-03-21T13:39:31;6;5;
57884;PMS5003;43703;51.060;-0.086;2023-03-21T13:42:02;7;6;
57884;PMS5003;43703;51.060;-0.086;2023-03-21T13:44:30;6;6;
57884;PMS5003;43703;51.060;-0.086;2023-03-21T13:46:51;8;6;
57884;PMS5003;43703;51.060;-0.086;2023-03-21T13:49:13;11;6;
57884;PMS5003;43703;51.060;-0.086;2023-03-21T13:51:42;8;8;
57884;PMS5003;43703;51.060;-0.086;2023-03-21T13:54:15;5;4;
57884;PMS5003;43703;51.060;-0.086;2023-03-21T13:56:30;5;5;
57884;PMS5003;43703;51.060;-0.086;2023-03-21T13:58:57;9;4;
57884;PMS5003;43703;51.060;-0.086;2023-03-21T14:03:45;6;5;
57884;PMS5003;43703;51.060;-0.086;2023-03-21T14:06:11;6;4;
57884;PMS5003;43703;51.060;-0.086;2023-03-21T14:08:37;9;7;
57884;PMS5003;43703;51.060;-0.086;2023-03-21T14:11:03;9;7;
57884;PMS5003;43703;51.060;-0.086;2023-03-21T14:13:27;11;5;
57884;PMS5003;43703;51.060;-0.086;2023-03-21T14:15:53;6;6;
57884;PMS5003;43703;51.060;-0.086;2023-03-21T14:18:19;9;5;
57884;PMS5003;43703;51.060;-0.086;2023-03-21T14:20:44;7;6;
57884;PMS5003;43703;51.060;-0.086;2023-03-21T14:23:12;6;4;
57884;PMS5003;43703;51.060;-0.086;2023-03-21T14:25:35;13;7;
57884;PMS5003;43703;51.060;-0.086;2023-03-21T14:28:02;5;5;
57884;PMS5003;43703;51.060;-0.086;2023-03-21T14:30:29;4;3;
57884;PMS5003;43703;51.060;-0.086;2023-03-21T14:32:53;5;5;
57884;PMS5003;43703;51.060;-0.086;2023-03-21T14:35:17;5;5;
57884;PMS5003;43703;51.060;-0.086;2023-03-21T14:37:44;9;6;
57884;PMS5003;43703;51.060;-0.086;2023-03-21T14:42:35;9;6;
57884;PMS5003;43703;51.060;-0.086;2023-03-21T14:47:27;6;5;
57884;PMS5003;43703;51.060;-0.086;2023-03-21T14:49:52;10;9;
57884;PMS5003;43703;51.060;-0.086;2023-03-21T14:52:19;7;5;
57884;PMS5003;43703;51.060;-0.086;2023-03-21T14:54:44;2;2;
57884;PMS5003;43703;51.060;-0.086;2023-03-21T14:59:36;4;3;
57884;PMS5003;43703;51.060;-0.086;2023-03-21T15:02:02;7;4;
57884;PMS5003;43703;51.060;-0.086;2023-03-21T15:04:27;6;3;
57884;PMS5003;43703;51.060;-0.086;2023-03-21T15:06:54;7;4;
57884;PMS5003;43703;51.060;-0.086;2023-03-21T15:09:18;8;6;
57884;PMS5003;43703;51.060;-0.086;2023-03-21T15:11:47;12;7;
57884;PMS5003;43703;51.060;-0.086;2023-03-21T15:14:10;8;6;
57884;PMS5003;43703;51.060;-0.086;2023-03-21T15:16:34;8;6;
57884;PMS5003;43703;51.060;-0.086;2023-03-21T15:19:00;9;6;
57884;PMS5003;43703;51.060;-0.086;2023-03-21T15:21:25;8;5;
57884;PMS5003;43703;51.060;-0.086;2023-03-21T15:23:51;6;6;
57884;PMS5003;43703;51.060;-0.086;2023-03-21T15:26:16;6;5;
57884;PMS5003;43703;51.060;-0.086;2023-03-21T15:28:41;8;6;
57884;PMS5003;43703;51.060;-0.086;2023-03-21T15:31:06;9;4;
57884;PMS5003;43703;51.060;-0.086;2023-03-21T15:33:31;8;6;
57884;PMS5003;43703;51.060;-0.086;2023-03-21T15:35:57;8;6;
57884;PMS5003;43703;51.060;-0.086;2023-03-21T15:38:23;15;7;
57884;PMS5003;43703;51.060;-0.086;2023-03-21T15:40:47;14;10;
57884;PMS5003;43703;51.060;-0.086;2023-03-21T15:43:13;6;4;
57884;PMS5003;43703;51.060;-0.086;2023-03-21T15:48:05;5;4;
57884;PMS5003;43703;51.060;-0.086;2023-03-21T15:50:32;8;8;
57884;PMS5003;43703;51.060;-0.086;2023-03-21T15:52:54;9;6;
57884;PMS5003;43703;51.060;-0.086;2023-03-21T15:55:20;13;13;
57884;PMS5003;43703;51.060;-0.086;2023-03-21T15:57:45;8;6;
57884;PMS5003;43703;51.060;-0.086;2023-03-21T16:00:16;11;11;
57884;PMS5003;43703;51.060;-0.086;2023-03-21T16:02:37;11;8;
57884;PMS5003;43703;51.060;-0.086;2023-03-21T16:05:04;13;11;
57884;PMS5003;43703;51.060;-0.086;2023-03-21T16:07:27;20;13;
57884;PMS5003;43703;51.060;-0.086;2023-03-21T16:09:56;20;20;
57884;PMS5003;43703;51.060;-0.086;2023-03-21T16:12:18;21;21;
57884;PMS5003;43703;51.060;-0.086;2023-03-21T16:14:43;32;30;
57884;PMS5003;43703;51.060;-0.086;2023-03-21T16:17:12;24;19;
57884;PMS5003;43703;51.060;-0.086;2023-03-21T16:19:34;30;29;
57884;PMS5003;43703;51.060;-0.086;2023-03-21T16:21:59;72;69;
57884;PMS5003;43703;51.060;-0.086;2023-03-21T16:24:25;8;5;
57884;PMS5003;43703;51.060;-0.086;2023-03-21T16:26:50;45;43;
57884;PMS5003;43703;51.060;-0.086;2023-03-21T16:29:17;70;68;
57884;PMS5003;43703;51.060;-0.086;2023-03-21T16:31:42;68;63;
57884;PMS5003;43703;51.060;-0.086;2023-03-21T16:34:07;59;57;
57884;PMS5003;43703;51.060;-0.086;2023-03-21T16:36:33;34;30;
57884;PMS5003;43703;51.060;-0.086;2023-03-21T16:38:58;42;37;